Terminal Aerodrome Forecast
Issued by NWS

Home | Current Version | Previous Version | Text Only | Print | Product List | Glossary On
Versions: 1 2 3 4 5 6 7 8 9 10 11 12 13 14 15 16 17 18 19
000
FTUS46 KLOX 061800 AAA
TAFPRB
TAF AMD
KPRB 061817Z 0618/0718 29005KT P6SM SCT024
     FM062200 26016KT P6SM FEW025
     FM070300 21010KT P6SM SKC
     FM070800 29007KT P6SM BKN015=

USA.gov is the U.S. government's official web portal to all federal, state and local government web resources and services.